Altnaharra, United Kingdom

5:41 PM GMT on March 02, 2015 (GMT +0000)
ISUTHERL3 | Change Station
CLOSE
Current Station
Personal Weather Station
Location: Shinness, Sutherland
Elevation: 436 ft
Nearby Weather Stations

Elev 436 ft 58.08 °N, 4.44 °W | Updated 5 seconds ago

Partly Cloudy
Partly Cloudy
32.2 °F
Feels Like 32 °F
N
0.0
Wind Variable Wind from North
Gusts 0.0 mph

Today
High -- | Low -- °F
--% Chance of Precip.
Yesterday
High -- | Low -- °F
Precip. -- in
7:11 AM 5:49 PM
Waxing Gibbous, 92% visible
Pressure 29.36 in
Visibility 6.2 miles
Clouds Few 1000 ft
Few 2600 ft
Windchill 32 °F
Dew Point 27 °F
Humidity 81%
Rainfall 0.07 in
Snow Depth Not available.
UV 0 out of 12
Pollen Not available.
Air Quality Not available.
Flu Activity Not available.
METAR EGPC 021720Z 27020KT 9999 VCSH FEW010CB FEW026 01/M02 Q0994

More Conditions Fewer Conditions

Pressure 29.36 in
Visibility 6.2 miles
Clouds Few 1000 ft
Few 2600 ft
Windchill 32 °F
Dew Point 27 °F
Humidity 81%
Rainfall 0.07 in
Snow Depth Not available.
UV 0 out of 12
Pollen Not available.
Air Quality Not available.
Flu Activity Not available.
METAR EGPC 021720Z 27020KT 9999 VCSH FEW010CB FEW026 01/M02 Q0994

More Conditions Fewer Conditions

10-Day Weather Forecast

Almanac

Astronomy

Mar. 02, 2015 Rise Set
Actual Time
Civil Twilight
Nautical Twilight
Astronomical Twilight
Moon
Length of Visible Light
Length of Day
Tomorrow will be .
, % of the Moon is Illuminated

Today's Extremes

Country Highs Country Lows

Community

WunderPhotos

Upload Photos

1,801,878 photos uploaded!

WunderBlogs® & News

Nearby

Air Quality

  Air Quality AQ Index Pollutant
Not available.

Snow Depth

Station Depth Elevation

Earthquake Activity

City Distance Mag. Time & Date
Minimum magnitude displayed is 2.5.

Coastal Water Temperatures

Place Temperature

Nearby Weather Stations